sensor_id;sensor_type;location;lat;lon;timestamp;P1;durP1;ratioP1;P2;durP2;ratioP2
21802;SDS011;18591;47.080;22.214;2022-09-09T00:00:23;7.22;;;6.43;;
21802;SDS011;18591;47.080;22.214;2022-09-09T00:02:27;7.18;;;6.20;;
21802;SDS011;18591;47.080;22.214;2022-09-09T00:04:33;6.63;;;5.93;;
21802;SDS011;18591;47.080;22.214;2022-09-09T00:06:50;9.77;;;6.85;;
21802;SDS011;18591;47.080;22.214;2022-09-09T00:11:21;10.20;;;6.13;;
21802;SDS011;18591;47.080;22.214;2022-09-09T00:13:34;6.45;;;5.85;;
21802;SDS011;18591;47.080;22.214;2022-09-09T00:17:53;7.78;;;6.30;;
21802;SDS011;18591;47.080;22.214;2022-09-09T00:20:14;7.47;;;6.35;;
21802;SDS011;18591;47.080;22.214;2022-09-09T00:22:29;7.63;;;6.22;;
21802;SDS011;18591;47.080;22.214;2022-09-09T00:26:48;6.25;;;5.22;;
21802;SDS011;18591;47.080;22.214;2022-09-09T00:28:56;10.48;;;6.07;;
21802;SDS011;18591;47.080;22.214;2022-09-09T00:31:12;7.30;;;5.25;;
21802;SDS011;18591;47.080;22.214;2022-09-09T00:33:26;8.02;;;5.35;;
21802;SDS011;18591;47.080;22.214;2022-09-09T00:35:30;6.15;;;5.55;;
21802;SDS011;18591;47.080;22.214;2022-09-09T00:37:36;6.82;;;5.47;;
21802;SDS011;18591;47.080;22.214;2022-09-09T00:39:43;7.72;;;5.97;;
21802;SDS011;18591;47.080;22.214;2022-09-09T00:51:46;11.15;;;6.78;;
21802;SDS011;18591;47.080;22.214;2022-09-09T00:54:19;9.32;;;5.75;;
21802;SDS011;18591;47.080;22.214;2022-09-09T00:56:54;6.03;;;5.43;;
21802;SDS011;18591;47.080;22.214;2022-09-09T01:01:11;8.45;;;5.97;;
21802;SDS011;18591;47.080;22.214;2022-09-09T01:03:22;5.90;;;5.00;;
21802;SDS011;18591;47.080;22.214;2022-09-09T01:08:18;8.40;;;5.30;;
21802;SDS011;18591;47.080;22.214;2022-09-09T01:12:50;7.65;;;4.97;;
21802;SDS011;18591;47.080;22.214;2022-09-09T01:15:20;5.38;;;4.22;;
21802;SDS011;18591;47.080;22.214;2022-09-09T01:17:26;7.60;;;4.97;;
21802;SDS011;18591;47.080;22.214;2022-09-09T01:21:59;5.20;;;4.68;;
21802;SDS011;18591;47.080;22.214;2022-09-09T01:24:27;6.35;;;4.90;;
21802;SDS011;18591;47.080;22.214;2022-09-09T01:27:06;5.93;;;4.32;;
21802;SDS011;18591;47.080;22.214;2022-09-09T01:29:12;7.40;;;5.05;;
21802;SDS011;18591;47.080;22.214;2022-09-09T01:31:28;5.28;;;4.68;;
21802;SDS011;18591;47.080;22.214;2022-09-09T01:33:34;7.18;;;5.22;;
21802;SDS011;18591;47.080;22.214;2022-09-09T01:35:41;5.38;;;4.55;;
21802;SDS011;18591;47.080;22.214;2022-09-09T01:37:58;5.65;;;4.47;;
21802;SDS011;18591;47.080;22.214;2022-09-09T01:40:01;5.85;;;4.32;;
21802;SDS011;18591;47.080;22.214;2022-09-09T01:42:06;5.13;;;4.55;;
21802;SDS011;18591;47.080;22.214;2022-09-09T01:44:11;7.78;;;4.78;;
21802;SDS011;18591;47.080;22.214;2022-09-09T01:46:18;4.85;;;4.45;;
21802;SDS011;18591;47.080;22.214;2022-09-09T01:48:24;6.07;;;5.00;;
21802;SDS011;18591;47.080;22.214;2022-09-09T01:50:36;6.75;;;5.20;;
21802;SDS011;18591;47.080;22.214;2022-09-09T01:52:39;9.05;;;5.57;;
21802;SDS011;18591;47.080;22.214;2022-09-09T01:54:46;7.03;;;5.63;;
21802;SDS011;18591;47.080;22.214;2022-09-09T01:59:23;7.18;;;6.47;;
21802;SDS011;18591;47.080;22.214;2022-09-09T02:03:35;8.45;;;6.15;;
21802;SDS011;18591;47.080;22.214;2022-09-09T02:05:55;9.98;;;7.35;;
21802;SDS011;18591;47.080;22.214;2022-09-09T02:08:08;8.90;;;6.57;;
21802;SDS011;18591;47.080;22.214;2022-09-09T02:10:31;7.00;;;6.32;;
21802;SDS011;18591;47.080;22.214;2022-09-09T02:12:46;10.38;;;7.10;;
21802;SDS011;18591;47.080;22.214;2022-09-09T02:14:56;9.18;;;7.43;;
21802;SDS011;18591;47.080;22.214;2022-09-09T02:17:15;7.95;;;7.20;;
21802;SDS011;18591;47.080;22.214;2022-09-09T02:19:39;7.90;;;7.05;;
21802;SDS011;18591;47.080;22.214;2022-09-09T02:21:57;7.40;;;6.40;;
21802;SDS011;18591;47.080;22.214;2022-09-09T02:24:06;12.18;;;7.95;;
21802;SDS011;18591;47.080;22.214;2022-09-09T02:26:18;8.93;;;6.65;;
21802;SDS011;18591;47.080;22.214;2022-09-09T02:28:32;7.35;;;6.10;;
21802;SDS011;18591;47.080;22.214;2022-09-09T02:30:36;11.70;;;7.55;;
21802;SDS011;18591;47.080;22.214;2022-09-09T02:32:42;7.57;;;6.22;;
21802;SDS011;18591;47.080;22.214;2022-09-09T02:34:49;7.45;;;6.75;;
21802;SDS011;18591;47.080;22.214;2022-09-09T02:36:55;9.10;;;6.85;;
21802;SDS011;18591;47.080;22.214;2022-09-09T02:39:01;8.70;;;7.90;;
21802;SDS011;18591;47.080;22.214;2022-09-09T02:41:08;7.85;;;6.88;;
21802;SDS011;18591;47.080;22.214;2022-09-09T02:43:11;7.28;;;5.63;;
21802;SDS011;18591;47.080;22.214;2022-09-09T02:45:19;8.10;;;6.35;;
21802;SDS011;18591;47.080;22.214;2022-09-09T02:47:30;6.70;;;6.10;;
21802;SDS011;18591;47.080;22.214;2022-09-09T02:50:04;10.35;;;7.40;;
21802;SDS011;18591;47.080;22.214;2022-09-09T02:52:18;8.27;;;6.97;;
21802;SDS011;18591;47.080;22.214;2022-09-09T02:54:29;7.78;;;7.05;;
21802;SDS011;18591;47.080;22.214;2022-09-09T02:56:39;7.35;;;6.40;;
21802;SDS011;18591;47.080;22.214;2022-09-09T02:58:46;6.85;;;6.15;;
21802;SDS011;18591;47.080;22.214;2022-09-09T03:00:49;6.80;;;6.10;;
21802;SDS011;18591;47.080;22.214;2022-09-09T03:02:53;6.60;;;6.00;;
21802;SDS011;18591;47.080;22.214;2022-09-09T03:04:56;7.05;;;6.45;;
21802;SDS011;18591;47.080;22.214;2022-09-09T03:06:58;7.07;;;6.43;;
21802;SDS011;18591;47.080;22.214;2022-09-09T03:09:01;9.45;;;5.93;;
21802;SDS011;18591;47.080;22.214;2022-09-09T03:11:04;8.20;;;6.22;;
21802;SDS011;18591;47.080;22.214;2022-09-09T03:13:09;8.23;;;7.20;;
21802;SDS011;18591;47.080;22.214;2022-09-09T03:15:13;7.35;;;6.50;;
21802;SDS011;18591;47.080;22.214;2022-09-09T03:17:17;7.22;;;5.75;;
21802;SDS011;18591;47.080;22.214;2022-09-09T03:19:25;8.02;;;5.75;;
21802;SDS011;18591;47.080;22.214;2022-09-09T03:21:27;7.63;;;5.78;;
21802;SDS011;18591;47.080;22.214;2022-09-09T03:23:29;6.35;;;5.28;;
21802;SDS011;18591;47.080;22.214;2022-09-09T03:25:35;7.55;;;6.85;;
21802;SDS011;18591;47.080;22.214;2022-09-09T03:27:37;8.50;;;6.60;;
21802;SDS011;18591;47.080;22.214;2022-09-09T03:29:39;5.78;;;5.28;;
21802;SDS011;18591;47.080;22.214;2022-09-09T03:31:45;6.03;;;5.53;;
21802;SDS011;18591;47.080;22.214;2022-09-09T03:33:52;6.20;;;5.53;;
21802;SDS011;18591;47.080;22.214;2022-09-09T03:35:55;6.28;;;5.40;;
21802;SDS011;18591;47.080;22.214;2022-09-09T03:37:59;6.97;;;6.28;;
21802;SDS011;18591;47.080;22.214;2022-09-09T03:40:05;7.32;;;5.75;;
21802;SDS011;18591;47.080;22.214;2022-09-09T03:42:13;6.60;;;5.15;;
21802;SDS011;18591;47.080;22.214;2022-09-09T03:44:23;5.57;;;5.07;;
21802;SDS011;18591;47.080;22.214;2022-09-09T03:46:26;5.53;;;5.03;;
21802;SDS011;18591;47.080;22.214;2022-09-09T03:48:29;6.20;;;5.60;;
21802;SDS011;18591;47.080;22.214;2022-09-09T03:50:32;5.68;;;5.18;;
21802;SDS011;18591;47.080;22.214;2022-09-09T03:52:38;5.38;;;4.30;;
21802;SDS011;18591;47.080;22.214;2022-09-09T03:54:47;5.20;;;4.70;;
21802;SDS011;18591;47.080;22.214;2022-09-09T03:56:50;6.40;;;5.53;;
21802;SDS011;18591;47.080;22.214;2022-09-09T03:58:52;5.35;;;4.90;;
21802;SDS011;18591;47.080;22.214;2022-09-09T04:01:00;5.80;;;4.88;;
21802;SDS011;18591;47.080;22.214;2022-09-09T04:03:04;8.43;;;5.57;;
21802;SDS011;18591;47.080;22.214;2022-09-09T04:05:07;7.05;;;4.68;;
21802;SDS011;18591;47.080;22.214;2022-09-09T04:07:09;5.82;;;4.93;;
21802;SDS011;18591;47.080;22.214;2022-09-09T04:09:14;5.20;;;4.70;;
21802;SDS011;18591;47.080;22.214;2022-09-09T04:11:17;7.80;;;4.22;;
21802;SDS011;18591;47.080;22.214;2022-09-09T04:13:22;6.93;;;6.32;;
21802;SDS011;18591;47.080;22.214;2022-09-09T04:15:24;9.48;;;5.93;;
21802;SDS011;18591;47.080;22.214;2022-09-09T04:17:26;5.95;;;4.68;;
21802;SDS011;18591;47.080;22.214;2022-09-09T04:19:28;9.95;;;6.38;;
21802;SDS011;18591;47.080;22.214;2022-09-09T04:21:30;5.68;;;4.97;;
21802;SDS011;18591;47.080;22.214;2022-09-09T04:23:36;5.88;;;5.13;;
21802;SDS011;18591;47.080;22.214;2022-09-09T04:25:46;7.22;;;4.90;;
21802;SDS011;18591;47.080;22.214;2022-09-09T04:27:55;7.90;;;5.18;;
21802;SDS011;18591;47.080;22.214;2022-09-09T04:29:58;4.78;;;4.32;;
21802;SDS011;18591;47.080;22.214;2022-09-09T04:32:06;8.05;;;4.55;;
21802;SDS011;18591;47.080;22.214;2022-09-09T04:34:10;5.63;;;4.35;;
21802;SDS011;18591;47.080;22.214;2022-09-09T04:36:15;5.90;;;4.38;;
21802;SDS011;18591;47.080;22.214;2022-09-09T04:38:18;4.63;;;4.22;;
21802;SDS011;18591;47.080;22.214;2022-09-09T04:40:21;5.70;;;4.97;;
21802;SDS011;18591;47.080;22.214;2022-09-09T04:42:24;6.38;;;5.03;;
21802;SDS011;18591;47.080;22.214;2022-09-09T04:44:30;6.90;;;4.85;;
21802;SDS011;18591;47.080;22.214;2022-09-09T04:46:33;6.18;;;5.05;;
21802;SDS011;18591;47.080;22.214;2022-09-09T04:48:36;5.65;;;5.15;;
21802;SDS011;18591;47.080;22.214;2022-09-09T04:50:40;5.43;;;4.60;;
21802;SDS011;18591;47.080;22.214;2022-09-09T04:52:45;4.15;;;3.47;;
21802;SDS011;18591;47.080;22.214;2022-09-09T04:54:47;4.68;;;3.40;;
21802;SDS011;18591;47.080;22.214;2022-09-09T04:56:50;6.13;;;3.78;;
21802;SDS011;18591;47.080;22.214;2022-09-09T04:58:52;4.70;;;4.10;;
21802;SDS011;18591;47.080;22.214;2022-09-09T05:01:03;5.38;;;4.25;;
21802;SDS011;18591;47.080;22.214;2022-09-09T05:03:06;4.95;;;4.45;;
21802;SDS011;18591;47.080;22.214;2022-09-09T05:05:10;5.70;;;4.88;;
21802;SDS011;18591;47.080;22.214;2022-09-09T05:07:13;8.32;;;4.43;;
21802;SDS011;18591;47.080;22.214;2022-09-09T05:09:16;5.75;;;4.10;;
21802;SDS011;18591;47.080;22.214;2022-09-09T05:11:23;4.97;;;3.63;;
21802;SDS011;18591;47.080;22.214;2022-09-09T05:13:49;4.80;;;3.10;;
21802;SDS011;18591;47.080;22.214;2022-09-09T05:15:53;3.90;;;3.60;;
21802;SDS011;18591;47.080;22.214;2022-09-09T05:17:58;3.83;;;3.42;;
21802;SDS011;18591;47.080;22.214;2022-09-09T05:20:03;4.30;;;3.05;;
21802;SDS011;18591;47.080;22.214;2022-09-09T05:22:10;4.22;;;3.33;;
21802;SDS011;18591;47.080;22.214;2022-09-09T05:24:18;3.92;;;3.63;;
21802;SDS011;18591;47.080;22.214;2022-09-09T05:26:28;4.32;;;3.40;;
21802;SDS011;18591;47.080;22.214;2022-09-09T05:28:33;4.60;;;3.35;;
21802;SDS011;18591;47.080;22.214;2022-09-09T05:30:37;3.33;;;2.80;;
21802;SDS011;18591;47.080;22.214;2022-09-09T05:32:43;5.13;;;3.00;;
21802;SDS011;18591;47.080;22.214;2022-09-09T05:34:46;4.88;;;3.08;;
21802;SDS011;18591;47.080;22.214;2022-09-09T05:36:49;6.47;;;4.20;;
21802;SDS011;18591;47.080;22.214;2022-09-09T05:38:51;3.85;;;3.10;;
21802;SDS011;18591;47.080;22.214;2022-09-09T05:40:58;3.22;;;2.95;;
21802;SDS011;18591;47.080;22.214;2022-09-09T05:43:02;3.67;;;2.47;;
21802;SDS011;18591;47.080;22.214;2022-09-09T05:45:05;4.05;;;2.78;;
21802;SDS011;18591;47.080;22.214;2022-09-09T05:47:09;3.60;;;2.85;;
21802;SDS011;18591;47.080;22.214;2022-09-09T05:49:11;2.72;;;2.45;;
21802;SDS011;18591;47.080;22.214;2022-09-09T05:51:16;3.08;;;2.78;;
21802;SDS011;18591;47.080;22.214;2022-09-09T05:53:27;3.33;;;2.55;;
21802;SDS011;18591;47.080;22.214;2022-09-09T05:55:33;5.53;;;3.53;;
21802;SDS011;18591;47.080;22.214;2022-09-09T05:57:37;2.80;;;2.45;;
21802;SDS011;18591;47.080;22.214;2022-09-09T05:59:41;2.97;;;2.70;;
21802;SDS011;18591;47.080;22.214;2022-09-09T06:01:44;2.90;;;2.67;;
21802;SDS011;18591;47.080;22.214;2022-09-09T06:04:04;6.65;;;2.67;;
21802;SDS011;18591;47.080;22.214;2022-09-09T06:06:08;4.90;;;3.10;;
21802;SDS011;18591;47.080;22.214;2022-09-09T06:08:15;3.60;;;3.00;;
21802;SDS011;18591;47.080;22.214;2022-09-09T06:10:18;4.32;;;3.50;;
21802;SDS011;18591;47.080;22.214;2022-09-09T06:12:20;3.85;;;3.45;;
21802;SDS011;18591;47.080;22.214;2022-09-09T06:14:22;4.50;;;2.70;;
21802;SDS011;18591;47.080;22.214;2022-09-09T06:16:27;3.78;;;2.90;;
21802;SDS011;18591;47.080;22.214;2022-09-09T06:18:31;3.15;;;2.90;;
21802;SDS011;18591;47.080;22.214;2022-09-09T06:20:34;3.38;;;3.08;;
21802;SDS011;18591;47.080;22.214;2022-09-09T06:22:40;4.65;;;3.63;;
21802;SDS011;18591;47.080;22.214;2022-09-09T06:24:42;4.75;;;3.88;;
21802;SDS011;18591;47.080;22.214;2022-09-09T06:26:46;9.05;;;6.35;;
21802;SDS011;18591;47.080;22.214;2022-09-09T06:28:55;6.88;;;4.85;;
21802;SDS011;18591;47.080;22.214;2022-09-09T06:31:03;5.50;;;4.80;;
21802;SDS011;18591;47.080;22.214;2022-09-09T06:33:07;4.30;;;3.90;;
21802;SDS011;18591;47.080;22.214;2022-09-09T06:35:11;5.75;;;3.08;;
21802;SDS011;18591;47.080;22.214;2022-09-09T06:37:13;3.40;;;3.10;;
21802;SDS011;18591;47.080;22.214;2022-09-09T06:39:20;3.38;;;3.08;;
21802;SDS011;18591;47.080;22.214;2022-09-09T06:41:25;3.95;;;3.58;;
21802;SDS011;18591;47.080;22.214;2022-09-09T06:43:29;6.10;;;3.22;;
21802;SDS011;18591;47.080;22.214;2022-09-09T06:45:35;3.55;;;2.78;;
21802;SDS011;18591;47.080;22.214;2022-09-09T06:47:38;3.30;;;2.90;;
21802;SDS011;18591;47.080;22.214;2022-09-09T06:49:40;3.58;;;3.15;;
21802;SDS011;18591;47.080;22.214;2022-09-09T06:51:48;6.80;;;3.55;;
21802;SDS011;18591;47.080;22.214;2022-09-09T06:53:52;3.92;;;3.30;;
21802;SDS011;18591;47.080;22.214;2022-09-09T06:55:57;3.95;;;3.40;;
21802;SDS011;18591;47.080;22.214;2022-09-09T06:58:00;4.72;;;3.53;;
21802;SDS011;18591;47.080;22.214;2022-09-09T07:00:03;3.63;;;3.33;;
21802;SDS011;18591;47.080;22.214;2022-09-09T07:02:07;3.10;;;2.80;;
21802;SDS011;18591;47.080;22.214;2022-09-09T07:04:10;3.30;;;3.10;;
21802;SDS011;18591;47.080;22.214;2022-09-09T07:06:15;3.55;;;3.25;;
21802;SDS011;18591;47.080;22.214;2022-09-09T07:08:19;3.92;;;3.15;;
21802;SDS011;18591;47.080;22.214;2022-09-09T07:10:25;3.40;;;2.97;;
21802;SDS011;18591;47.080;22.214;2022-09-09T07:12:27;2.97;;;2.72;;
21802;SDS011;18591;47.080;22.214;2022-09-09T07:14:33;3.30;;;3.00;;
21802;SDS011;18591;47.080;22.214;2022-09-09T07:16:40;3.75;;;2.78;;
21802;SDS011;18591;47.080;22.214;2022-09-09T07:18:49;3.53;;;3.13;;
21802;SDS011;18591;47.080;22.214;2022-09-09T07:20:52;4.00;;;3.30;;
21802;SDS011;18591;47.080;22.214;2022-09-09T07:22:57;4.03;;;3.60;;
21802;SDS011;18591;47.080;22.214;2022-09-09T07:25:00;3.65;;;3.03;;
21802;SDS011;18591;47.080;22.214;2022-09-09T07:27:06;3.85;;;2.97;;
21802;SDS011;18591;47.080;22.214;2022-09-09T07:29:10;3.92;;;3.20;;
21802;SDS011;18591;47.080;22.214;2022-09-09T07:31:26;3.28;;;2.95;;
21802;SDS011;18591;47.080;22.214;2022-09-09T07:33:33;3.85;;;3.53;;
21802;SDS011;18591;47.080;22.214;2022-09-09T07:35:37;6.45;;;4.03;;
21802;SDS011;18591;47.080;22.214;2022-09-09T07:37:39;4.43;;;3.20;;
21802;SDS011;18591;47.080;22.214;2022-09-09T07:39:43;7.40;;;4.50;;
21802;SDS011;18591;47.080;22.214;2022-09-09T07:41:47;4.50;;;3.55;;
21802;SDS011;18591;47.080;22.214;2022-09-09T07:43:53;3.17;;;2.83;;
21802;SDS011;18591;47.080;22.214;2022-09-09T07:45:57;3.90;;;3.40;;
21802;SDS011;18591;47.080;22.214;2022-09-09T07:48:02;3.60;;;3.30;;
21802;SDS011;18591;47.080;22.214;2022-09-09T07:50:05;4.95;;;3.33;;
21802;SDS011;18591;47.080;22.214;2022-09-09T07:52:08;4.55;;;3.67;;
21802;SDS011;18591;47.080;22.214;2022-09-09T07:54:14;3.88;;;3.42;;
21802;SDS011;18591;47.080;22.214;2022-09-09T07:56:19;4.32;;;3.33;;
21802;SDS011;18591;47.080;22.214;2022-09-09T07:58:24;4.07;;;3.33;;
21802;SDS011;18591;47.080;22.214;2022-09-09T08:00:27;3.33;;;3.03;;
21802;SDS011;18591;47.080;22.214;2022-09-09T08:02:31;5.35;;;3.50;;
21802;SDS011;18591;47.080;22.214;2022-09-09T08:04:34;7.18;;;4.15;;
21802;SDS011;18591;47.080;22.214;2022-09-09T08:06:38;7.57;;;3.30;;
21802;SDS011;18591;47.080;22.214;2022-09-09T08:08:43;3.63;;;3.28;;
21802;SDS011;18591;47.080;22.214;2022-09-09T08:10:46;3.92;;;3.63;;
21802;SDS011;18591;47.080;22.214;2022-09-09T08:12:49;6.72;;;3.35;;
21802;SDS011;18591;47.080;22.214;2022-09-09T08:15:11;3.95;;;3.60;;
21802;SDS011;18591;47.080;22.214;2022-09-09T08:17:14;4.10;;;3.70;;
21802;SDS011;18591;47.080;22.214;2022-09-09T08:19:17;3.75;;;3.45;;
21802;SDS011;18591;47.080;22.214;2022-09-09T08:21:21;5.75;;;3.10;;
21802;SDS011;18591;47.080;22.214;2022-09-09T08:23:26;7.80;;;4.53;;
21802;SDS011;18591;47.080;22.214;2022-09-09T08:25:28;5.15;;;3.72;;
21802;SDS011;18591;47.080;22.214;2022-09-09T08:27:30;4.38;;;3.97;;
21802;SDS011;18591;47.080;22.214;2022-09-09T08:29:33;6.88;;;3.80;;
21802;SDS011;18591;47.080;22.214;2022-09-09T08:31:37;6.97;;;4.60;;
21802;SDS011;18591;47.080;22.214;2022-09-09T08:33:42;6.97;;;4.88;;
21802;SDS011;18591;47.080;22.214;2022-09-09T08:35:50;5.90;;;5.03;;
21802;SDS011;18591;47.080;22.214;2022-09-09T08:37:53;5.13;;;4.70;;
21802;SDS011;18591;47.080;22.214;2022-09-09T08:39:58;7.47;;;4.63;;
21802;SDS011;18591;47.080;22.214;2022-09-09T08:44:14;5.93;;;5.32;;
21802;SDS011;18591;47.080;22.214;2022-09-09T08:46:42;11.50;;;5.70;;
21802;SDS011;18591;47.080;22.214;2022-09-09T08:50:58;8.10;;;6.15;;
21802;SDS011;18591;47.080;22.214;2022-09-09T08:55:22;8.07;;;6.63;;
21802;SDS011;18591;47.080;22.214;2022-09-09T08:57:38;8.75;;;5.70;;
21802;SDS011;18591;47.080;22.214;2022-09-09T08:59:40;6.97;;;6.28;;
21802;SDS011;18591;47.080;22.214;2022-09-09T09:08:55;7.90;;;6.47;;
21802;SDS011;18591;47.080;22.214;2022-09-09T09:11:06;6.55;;;5.57;;
21802;SDS011;18591;47.080;22.214;2022-09-09T09:13:15;6.80;;;6.10;;
21802;SDS011;18591;47.080;22.214;2022-09-09T09:15:26;7.45;;;6.72;;
21802;SDS011;18591;47.080;22.214;2022-09-09T09:17:33;9.35;;;6.50;;
21802;SDS011;18591;47.080;22.214;2022-09-09T09:19:40;7.93;;;6.55;;
21802;SDS011;18591;47.080;22.214;2022-09-09T09:22:04;6.82;;;6.10;;
21802;SDS011;18591;47.080;22.214;2022-09-09T09:24:17;6.30;;;5.70;;
21802;SDS011;18591;47.080;22.214;2022-09-09T09:26:24;6.32;;;5.72;;
21802;SDS011;18591;47.080;22.214;2022-09-09T09:28:33;6.40;;;5.80;;
21802;SDS011;18591;47.080;22.214;2022-09-09T09:30:50;8.18;;;6.00;;
21802;SDS011;18591;47.080;22.214;2022-09-09T09:33:06;6.75;;;5.70;;
21802;SDS011;18591;47.080;22.214;2022-09-09T09:35:16;6.55;;;5.63;;
21802;SDS011;18591;47.080;22.214;2022-09-09T09:37:22;7.47;;;6.70;;
21802;SDS011;18591;47.080;22.214;2022-09-09T09:39:33;6.32;;;5.38;;
21802;SDS011;18591;47.080;22.214;2022-09-09T09:42:14;7.55;;;6.55;;
21802;SDS011;18591;47.080;22.214;2022-09-09T09:44:25;7.70;;;6.28;;
21802;SDS011;18591;47.080;22.214;2022-09-09T09:46:40;8.20;;;6.35;;
21802;SDS011;18591;47.080;22.214;2022-09-09T09:48:56;7.63;;;5.97;;
21802;SDS011;18591;47.080;22.214;2022-09-09T09:51:10;6.97;;;6.28;;
21802;SDS011;18591;47.080;22.214;2022-09-09T09:53:27;9.02;;;6.22;;
21802;SDS011;18591;47.080;22.214;2022-09-09T09:55:33;7.15;;;6.15;;
21802;SDS011;18591;47.080;22.214;2022-09-09T09:57:37;8.45;;;6.10;;
21802;SDS011;18591;47.080;22.214;2022-09-09T09:59:43;7.05;;;6.35;;
21802;SDS011;18591;47.080;22.214;2022-09-09T10:02:18;7.28;;;6.15;;
21802;SDS011;18591;47.080;22.214;2022-09-09T10:04:28;9.57;;;7.22;;
21802;SDS011;18591;47.080;22.214;2022-09-09T10:06:34;6.40;;;5.80;;
21802;SDS011;18591;47.080;22.214;2022-09-09T10:08:45;7.25;;;6.22;;
21802;SDS011;18591;47.080;22.214;2022-09-09T10:13:11;8.55;;;6.63;;
21802;SDS011;18591;47.080;22.214;2022-09-09T10:15:39;6.85;;;6.25;;
21802;SDS011;18591;47.080;22.214;2022-09-09T10:17:54;6.72;;;6.13;;
21802;SDS011;18591;47.080;22.214;2022-09-09T10:20:21;7.25;;;5.50;;
21802;SDS011;18591;47.080;22.214;2022-09-09T10:22:36;8.38;;;6.65;;
21802;SDS011;18591;47.080;22.214;2022-09-09T10:27:23;6.97;;;6.35;;
21802;SDS011;18591;47.080;22.214;2022-09-09T10:29:54;8.45;;;6.97;;
21802;SDS011;18591;47.080;22.214;2022-09-09T10:35:01;6.93;;;6.28;;
21802;SDS011;18591;47.080;22.214;2022-09-09T10:37:06;7.35;;;6.63;;
21802;SDS011;18591;47.080;22.214;2022-09-09T10:39:31;6.85;;;6.25;;
21802;SDS011;18591;47.080;22.214;2022-09-09T10:48:20;7.15;;;6.45;;
21802;SDS011;18591;47.080;22.214;2022-09-09T10:50:52;8.10;;;7.30;;
21802;SDS011;18591;47.080;22.214;2022-09-09T10:53:25;7.90;;;6.60;;
21802;SDS011;18591;47.080;22.214;2022-09-09T10:55:41;8.15;;;7.32;;
21802;SDS011;18591;47.080;22.214;2022-09-09T10:57:47;8.55;;;6.75;;
21802;SDS011;18591;47.080;22.214;2022-09-09T10:59:53;8.48;;;7.20;;
21802;SDS011;18591;47.080;22.214;2022-09-09T11:04:22;7.65;;;6.82;;
21802;SDS011;18591;47.080;22.214;2022-09-09T11:06:32;8.50;;;7.70;;
21802;SDS011;18591;47.080;22.214;2022-09-09T11:08:40;8.00;;;7.07;;
21802;SDS011;18591;47.080;22.214;2022-09-09T11:13:03;10.60;;;7.88;;
21802;SDS011;18591;47.080;22.214;2022-09-09T11:15:15;9.45;;;8.45;;
21802;SDS011;18591;47.080;22.214;2022-09-09T11:17:39;8.23;;;7.50;;
21802;SDS011;18591;47.080;22.214;2022-09-09T11:19:46;11.93;;;8.48;;
21802;SDS011;18591;47.080;22.214;2022-09-09T11:21:49;10.77;;;7.97;;
21802;SDS011;18591;47.080;22.214;2022-09-09T11:23:54;9.00;;;8.10;;
21802;SDS011;18591;47.080;22.214;2022-09-09T11:26:01;9.32;;;7.90;;
21802;SDS011;18591;47.080;22.214;2022-09-09T11:28:16;9.95;;;7.95;;
21802;SDS011;18591;47.080;22.214;2022-09-09T11:33:20;8.77;;;7.68;;
21802;SDS011;18591;47.080;22.214;2022-09-09T11:35:44;9.57;;;8.32;;
21802;SDS011;18591;47.080;22.214;2022-09-09T11:40:21;9.57;;;8.65;;
21802;SDS011;18591;47.080;22.214;2022-09-09T11:42:32;11.18;;;9.27;;
21802;SDS011;18591;47.080;22.214;2022-09-09T11:44:34;12.35;;;9.45;;
21802;SDS011;18591;47.080;22.214;2022-09-09T11:46:41;10.23;;;9.10;;
21802;SDS011;18591;47.080;22.214;2022-09-09T11:48:44;10.18;;;7.88;;
21802;SDS011;18591;47.080;22.214;2022-09-09T11:50:56;13.30;;;10.27;;
21802;SDS011;18591;47.080;22.214;2022-09-09T11:53:15;15.00;;;10.30;;
21802;SDS011;18591;47.080;22.214;2022-09-09T11:55:29;9.77;;;8.77;;
21802;SDS011;18591;47.080;22.214;2022-09-09T11:57:36;8.95;;;8.05;;
21802;SDS011;18591;47.080;22.214;2022-09-09T11:59:39;14.10;;;9.02;;
21802;SDS011;18591;47.080;22.214;2022-09-09T12:04:38;11.50;;;8.30;;
21802;SDS011;18591;47.080;22.214;2022-09-09T12:06:47;12.05;;;7.90;;
21802;SDS011;18591;47.080;22.214;2022-09-09T12:08:55;10.02;;;9.02;;
21802;SDS011;18591;47.080;22.214;2022-09-09T12:11:24;12.27;;;8.85;;
21802;SDS011;18591;47.080;22.214;2022-09-09T12:13:33;11.27;;;8.82;;
21802;SDS011;18591;47.080;22.214;2022-09-09T12:15:35;9.20;;;8.25;;
21802;SDS011;18591;47.080;22.214;2022-09-09T12:17:52;8.95;;;8.05;;
21802;SDS011;18591;47.080;22.214;2022-09-09T12:20:00;12.02;;;9.50;;
21802;SDS011;18591;47.080;22.214;2022-09-09T12:24:20;10.57;;;8.80;;
21802;SDS011;18591;47.080;22.214;2022-09-09T12:26:34;10.52;;;9.52;;
21802;SDS011;18591;47.080;22.214;2022-09-09T12:31:10;10.70;;;9.20;;
21802;SDS011;18591;47.080;22.214;2022-09-09T12:33:19;15.57;;;10.15;;
21802;SDS011;18591;47.080;22.214;2022-09-09T12:35:25;11.25;;;10.15;;
21802;SDS011;18591;47.080;22.214;2022-09-09T12:40:00;10.55;;;9.10;;
21802;SDS011;18591;47.080;22.214;2022-09-09T12:42:04;11.77;;;10.70;;
21802;SDS011;18591;47.080;22.214;2022-09-09T12:44:08;11.70;;;10.63;;
21802;SDS011;18591;47.080;22.214;2022-09-09T12:46:17;13.07;;;10.02;;
21802;SDS011;18591;47.080;22.214;2022-09-09T12:48:34;13.20;;;11.57;;
21802;SDS011;18591;47.080;22.214;2022-09-09T12:50:44;17.35;;;12.38;;
21802;SDS011;18591;47.080;22.214;2022-09-09T12:52:50;13.35;;;10.43;;
21802;SDS011;18591;47.080;22.214;2022-09-09T12:54:57;11.65;;;10.45;;
21802;SDS011;18591;47.080;22.214;2022-09-09T12:57:09;12.10;;;10.90;;
21802;SDS011;18591;47.080;22.214;2022-09-09T12:59:27;14.23;;;11.05;;
21802;SDS011;18591;47.080;22.214;2022-09-09T13:01:37;14.05;;;12.27;;
21802;SDS011;18591;47.080;22.214;2022-09-09T13:03:43;16.98;;;11.43;;
21802;SDS011;18591;47.080;22.214;2022-09-09T13:05:49;13.90;;;11.75;;
21802;SDS011;18591;47.080;22.214;2022-09-09T13:07:51;12.90;;;11.60;;
21802;SDS011;18591;47.080;22.214;2022-09-09T13:09:53;11.88;;;10.50;;
21802;SDS011;18591;47.080;22.214;2022-09-09T13:11:55;14.10;;;12.13;;
21802;SDS011;18591;47.080;22.214;2022-09-09T13:13:59;13.20;;;10.70;;
21802;SDS011;18591;47.080;22.214;2022-09-09T13:16:02;11.93;;;10.73;;
21802;SDS011;18591;47.080;22.214;2022-09-09T13:18:06;12.10;;;11.00;;
21802;SDS011;18591;47.080;22.214;2022-09-09T13:20:17;11.82;;;10.73;;
21802;SDS011;18591;47.080;22.214;2022-09-09T13:22:37;12.27;;;11.13;;
21802;SDS011;18591;47.080;22.214;2022-09-09T13:24:42;12.85;;;11.35;;
21802;SDS011;18591;47.080;22.214;2022-09-09T13:26:53;11.82;;;10.73;;
21802;SDS011;18591;47.080;22.214;2022-09-09T13:29:08;12.18;;;11.02;;
21802;SDS011;18591;47.080;22.214;2022-09-09T13:31:33;13.50;;;11.63;;
21802;SDS011;18591;47.080;22.214;2022-09-09T13:33:38;12.07;;;10.98;;
21802;SDS011;18591;47.080;22.214;2022-09-09T13:35:47;13.10;;;11.43;;
21802;SDS011;18591;47.080;22.214;2022-09-09T13:37:54;13.35;;;11.98;;
21802;SDS011;18591;47.080;22.214;2022-09-09T13:39:56;12.15;;;11.05;;
21802;SDS011;18591;47.080;22.214;2022-09-09T13:41:59;12.65;;;11.38;;
21802;SDS011;18591;47.080;22.214;2022-09-09T13:44:02;13.35;;;12.05;;
21802;SDS011;18591;47.080;22.214;2022-09-09T13:46:22;13.10;;;11.82;;
21802;SDS011;18591;47.080;22.214;2022-09-09T13:48:25;14.52;;;11.85;;
21802;SDS011;18591;47.080;22.214;2022-09-09T13:50:28;13.40;;;12.00;;
21802;SDS011;18591;47.080;22.214;2022-09-09T13:52:31;14.23;;;11.65;;
21802;SDS011;18591;47.080;22.214;2022-09-09T13:54:33;25.58;;;13.80;;
21802;SDS011;18591;47.080;22.214;2022-09-09T13:56:35;20.20;;;14.95;;